Accueil
METAR-TAF:

METAR-TAF

Aéroports :

Aéroport de Shoreham

Brighton, Angleterre

latitude: 50-50N, longitude: 000-17W, altitude: 2 m

Observation

Le bulletin a été fait il y a 11 heures et 59 minutes, à 19:50 UTC
Vent 8 kt de nord-est
Température 2°C
Humidité 80%
Pression 1018 hPa
Visibilité 10 km ou plus
Quelques nuages à une hauteur de 3200 ft

METAR: EGKA 131950Z 04008KT 9999 FEW032 02/M01 Q1018

Heure: 07:49 (07:49 UTC)

Prévision

Le bulletin a été fait il y a 17 heures et 53 minutes, à 13:56 UTC
Prévision valable du 13 à 15 UTC au 13 à 19 UTC
Vent 14 kt de est
Visibilité 10 km ou plus
Nuages épars à une hauteur de 2500 ft

TAF: EGKA 131356Z 1315/1319 09014KT 9999 SCT025

Observations et prévisions météorologiques de plus de 4000 aéroports (messages METAR et TAF).

Les stations disponibles sont représentées par des disques jaunes et rouges sur la carte.

Passer la souris dessus pour voir le nom de la station.

Cliquer dessus pour voir les observations et prévisions météorologiques.

Pour changer de carte: cliquez sur les boutons verts avec une croix noire pour zoomer, sur le bouton vert avec un tiret pour effectuer un zoom arrière, ou sur les flèches vertes pour les cartes adjacentes.


METAR-TAF: